Airport View

Enter AWOS ICAO identifier for current METAR.

ex. KFNL

KFHB 040435Z AUTO 18007KT 10SM SCT050 SCT095 28/27 A2993 RMK AO2 LTG DSNT N AND NW T02780271

4 Aug 2020 04:49

Frequency: 118.075

Phone: 904-277-7323

Other Area AWOS: KNRB - KJAX - KCRG - KNIP

TAF KNRB 0323/0423 11007KT 9999 FEW025 BKN250 QNH2985INS FM040100 20006KT FEW035 SCT250 QNH2986INS FM041800 14010KT 9999 VCTS SCT030CB SCT250 QNH2990INS TEMPO 0418/0421 VRB15G25KT 4800 -TSRA BKN015 BKN030CB OVC080 AUTOMATED SENSOR METWATCH 0322 TIL 0409 T26/0310Z T32/0319Z FN20077